createdAt,value
2019-04-26T00:00:02.130Z,13.6
2019-04-26T00:05:01.914Z,13.6
2019-04-26T00:10:01.613Z,13.6
2019-04-26T00:15:01.451Z,13.6
2019-04-26T00:20:02.326Z,13.7
2019-04-26T00:25:01.660Z,13.7
2019-04-26T00:30:01.813Z,13.7
2019-04-26T00:35:01.634Z,13.6
2019-04-26T00:40:01.267Z,13.6
2019-04-26T00:45:02.093Z,13.6
2019-04-26T00:50:01.187Z,13.6
2019-04-26T00:55:01.550Z,13.5
2019-04-26T01:00:01.787Z,13.5
2019-04-26T01:05:02.355Z,13.5
2019-04-26T01:10:02.153Z,13.4
2019-04-26T01:15:01.759Z,13.4
2019-04-26T01:20:01.967Z,13.4
2019-04-26T01:25:01.418Z,13.4
2019-04-26T01:30:01.746Z,13.3
2019-04-26T01:35:02.187Z,13.3
2019-04-26T01:40:01.440Z,13.3
2019-04-26T01:45:02.290Z,13.3
2019-04-26T01:50:01.651Z,13.3
2019-04-26T01:55:01.931Z,13.3
2019-04-26T02:00:01.381Z,13.3
2019-04-26T02:05:01.722Z,13.3
2019-04-26T02:10:01.836Z,13.3
2019-04-26T02:15:01.926Z,13.3
2019-04-26T02:20:01.803Z,13.3
2019-04-26T02:25:02.115Z,13.2
2019-04-26T02:30:01.568Z,13.2
2019-04-26T02:35:02.104Z,13.2
2019-04-26T02:40:02.018Z,13.1
2019-04-26T02:45:01.460Z,13.1
2019-04-26T02:50:01.488Z,13.1
2019-04-26T02:55:01.871Z,13.1
2019-04-26T03:00:01.906Z,13.1
2019-04-26T03:05:01.226Z,13
2019-04-26T03:10:02.106Z,13
2019-04-26T03:15:13.022Z,13
2019-04-26T03:20:01.812Z,13
2019-04-26T03:25:02.232Z,13
2019-04-26T03:30:18.137Z,13
2019-04-26T03:35:01.794Z,13
2019-04-26T03:40:02.015Z,13
2019-04-26T03:45:01.631Z,12.9
2019-04-26T03:50:01.455Z,12.9
2019-04-26T03:55:01.786Z,12.8
2019-04-26T04:00:01.682Z,12.7
2019-04-26T04:05:01.923Z,12.7
2019-04-26T04:10:01.950Z,12.6
2019-04-26T04:15:01.623Z,12.6
2019-04-26T04:20:02.217Z,12.6
2019-04-26T04:25:01.480Z,12.7
2019-04-26T04:30:02.270Z,12.8
2019-04-26T04:35:01.356Z,12.7
2019-04-26T04:40:02.054Z,12.7
2019-04-26T04:45:01.551Z,12.8
2019-04-26T04:50:02.255Z,12.9
2019-04-26T04:55:06.589Z,13.1
2019-04-26T05:00:01.556Z,13.4
2019-04-26T05:05:01.460Z,13.7
2019-04-26T05:10:01.776Z,13.7
2019-04-26T05:15:01.919Z,13.6
2019-04-26T05:20:02.124Z,13.5
2019-04-26T05:25:01.645Z,13.5
2019-04-26T05:30:01.891Z,13.5
2019-04-26T05:35:01.873Z,13.5
2019-04-26T05:40:01.452Z,13.3
2019-04-26T05:45:01.443Z,13.3
2019-04-26T05:50:02.478Z,13.3
2019-04-26T05:55:02.641Z,13.5
2019-04-26T06:00:01.778Z,13.9
2019-04-26T06:05:01.549Z,13.9
2019-04-26T06:10:01.278Z,14.2
2019-04-26T06:15:01.680Z,14.4
2019-04-26T06:20:02.543Z,14.6
2019-04-26T06:25:02.461Z,14.7
2019-04-26T06:30:03.161Z,14.9
2019-04-26T06:35:02.050Z,15
2019-04-26T06:40:02.250Z,15.2
2019-04-26T06:45:01.248Z,15.6
2019-04-26T06:50:01.570Z,15.8
2019-04-26T06:55:02.266Z,15.7
2019-04-26T07:00:02.307Z,15.7
2019-04-26T07:05:02.772Z,15.7
2019-04-26T07:10:01.905Z,15.8
2019-04-26T07:15:02.225Z,15.6
2019-04-26T07:20:03.060Z,15.4
2019-04-26T07:25:01.824Z,14.9
2019-04-26T07:30:03.199Z,14.6
2019-04-26T07:35:02.703Z,14.6
2019-04-26T07:40:02.955Z,14.6
2019-04-26T07:45:02.187Z,14.7
2019-04-26T07:50:03.421Z,14.7
2019-04-26T07:55:03.159Z,14.8
2019-04-26T08:00:01.517Z,14.8
2019-04-26T08:05:03.261Z,14.9
2019-04-26T08:10:02.054Z,14.9
2019-04-26T08:15:02.123Z,14.8
2019-04-26T08:20:02.202Z,14.5
2019-04-26T08:25:02.442Z,14.6
2019-04-26T08:30:03.277Z,14.8
2019-04-26T08:35:02.215Z,14.8
2019-04-26T08:40:01.337Z,14.9
2019-04-26T08:45:04.369Z,15.1
2019-04-26T08:50:01.323Z,15.3
2019-04-26T08:55:01.644Z,15.3
2019-04-26T09:00:02.534Z,15.2
2019-04-26T09:05:01.755Z,15.3
2019-04-26T09:10:10.552Z,15.5
2019-04-26T09:15:01.494Z,15.9
2019-04-26T09:20:06.846Z,17.3
2019-04-26T09:25:01.318Z,17.8
2019-04-26T09:30:04.861Z,18.4
2019-04-26T09:35:01.417Z,18.7
2019-04-26T09:40:09.923Z,19
2019-04-26T09:45:01.711Z,19.5
2019-04-26T09:50:02.057Z,20.2
2019-04-26T09:55:02.117Z,20.9
2019-04-26T10:00:01.485Z,21.2
2019-04-26T10:05:01.935Z,21.6
2019-04-26T10:10:02.007Z,21.8
2019-04-26T10:15:01.569Z,21.9
2019-04-26T10:20:01.430Z,22.1
2019-04-26T10:25:02.228Z,22.1
2019-04-26T10:30:07.586Z,22.6
2019-04-26T10:35:01.924Z,22.4
2019-04-26T10:40:01.524Z,22.3
2019-04-26T10:45:01.733Z,22.3
2019-04-26T10:50:02.192Z,22.7
2019-04-26T10:55:01.394Z,22.5
2019-04-26T11:00:01.746Z,21.7
2019-04-26T11:05:01.671Z,21.3
2019-04-26T11:10:02.974Z,20.9
2019-04-26T11:15:02.046Z,20.7
2019-04-26T11:20:01.926Z,20.9
2019-04-26T11:25:01.903Z,20.8
2019-04-26T11:30:11.382Z,21.2
2019-04-26T11:35:02.065Z,21.4
2019-04-26T11:40:01.588Z,21.1
2019-04-26T11:45:06.147Z,20.7
2019-04-26T11:50:01.880Z,20.4
2019-04-26T11:55:01.284Z,20.2
2019-04-26T12:00:05.432Z,19.8
2019-04-26T12:05:01.501Z,19.3
2019-04-26T12:10:02.066Z,18.9
2019-04-26T12:15:03.752Z,19
2019-04-26T12:20:01.679Z,18.9
2019-04-26T12:25:03.301Z,19.3
2019-04-26T12:30:02.054Z,19.6
2019-04-26T12:35:02.056Z,19.7
2019-04-26T12:40:01.507Z,20
2019-04-26T12:45:01.513Z,20.3
2019-04-26T12:50:01.738Z,20.5
2019-04-26T12:55:01.758Z,20.8
2019-04-26T13:00:02.195Z,20.9
2019-04-26T13:05:02.412Z,20.7
2019-04-26T13:10:02.215Z,20.8
2019-04-26T13:15:01.567Z,20.9
2019-04-26T13:20:02.010Z,20.9
2019-04-26T13:25:01.533Z,20.8
2019-04-26T13:30:02.850Z,21
2019-04-26T13:35:01.490Z,21
2019-04-26T13:40:02.210Z,20.9
2019-04-26T13:45:01.263Z,21.2
2019-04-26T13:50:02.332Z,21.4
2019-04-26T13:55:01.791Z,21.1
2019-04-26T14:00:02.446Z,20.8
2019-04-26T14:05:01.558Z,20.7
2019-04-26T14:10:02.050Z,20.6
2019-04-26T14:15:04.453Z,20.1
2019-04-26T14:20:01.236Z,19.6
2019-04-26T14:25:02.153Z,19.4
2019-04-26T14:30:02.424Z,19.2
2019-04-26T14:35:02.001Z,18.9
2019-04-26T14:40:16.495Z,18.5
2019-04-26T14:45:02.160Z,18.2
2019-04-26T14:50:13.235Z,17.9
2019-04-26T14:55:02.036Z,17.9
2019-04-26T15:00:01.983Z,17.9
2019-04-26T15:05:02.488Z,17.8
2019-04-26T15:10:02.805Z,17.8
2019-04-26T15:15:04.096Z,17.9
2019-04-26T15:20:03.264Z,17.8
2019-04-26T15:25:01.278Z,17.5
2019-04-26T15:30:04.197Z,17.3
2019-04-26T15:35:01.421Z,17.2
2019-04-26T15:40:02.666Z,17.2
2019-04-26T15:45:03.301Z,17
2019-04-26T15:50:03.805Z,17.1
2019-04-26T15:55:05.323Z,17
2019-04-26T16:00:03.834Z,17
2019-04-26T16:05:02.540Z,17.1
2019-04-26T16:10:02.175Z,17.1
2019-04-26T16:15:02.398Z,17.1
2019-04-26T16:20:03.164Z,16.7
2019-04-26T16:25:05.005Z,16.5
2019-04-26T16:30:02.905Z,16.1
2019-04-26T16:35:02.900Z,15.9
2019-04-26T16:40:02.148Z,15.6
2019-04-26T16:45:04.505Z,15.5
2019-04-26T16:50:03.238Z,15.3
2019-04-26T16:55:02.715Z,15.1
2019-04-26T17:00:04.843Z,15.1
2019-04-26T17:05:07.967Z,15
2019-04-26T17:10:03.074Z,15
2019-04-26T17:15:03.369Z,15
2019-04-26T17:20:02.575Z,14.8
2019-04-26T17:25:02.576Z,14.7
2019-04-26T17:30:03.069Z,14.7
2019-04-26T17:35:04.557Z,14.5
2019-04-26T17:40:01.368Z,14.5
2019-04-26T17:45:06.739Z,14.4
2019-04-26T17:50:02.656Z,14.3
2019-04-26T17:55:02.117Z,14.2
2019-04-26T18:00:07.383Z,14.2
2019-04-26T18:05:03.551Z,14.1
2019-04-26T18:10:04.795Z,14
2019-04-26T18:15:04.884Z,14.1
2019-04-26T18:20:05.036Z,14
2019-04-26T18:25:04.186Z,13.9
2019-04-26T18:30:07.031Z,13.8
2019-04-26T18:35:01.659Z,13.7
2019-04-26T18:40:04.619Z,13.6
2019-04-26T18:45:03.607Z,13.5
2019-04-26T18:50:01.807Z,13.4
2019-04-26T18:55:03.892Z,13.3
2019-04-26T19:00:01.810Z,13.3
2019-04-26T19:05:03.612Z,13.2
2019-04-26T19:10:04.758Z,13.3
2019-04-26T19:15:04.048Z,13.2
2019-04-26T19:20:02.122Z,13.2
2019-04-26T19:25:02.106Z,13.2
2019-04-26T19:30:02.761Z,13.1
2019-04-26T19:35:06.964Z,13.1
2019-04-26T19:40:02.775Z,13.1
2019-04-26T19:45:11.419Z,13.1
2019-04-26T19:50:02.976Z,13.1
2019-04-26T19:55:01.763Z,13.1
2019-04-26T20:00:03.682Z,12.9
2019-04-26T20:05:02.315Z,12.8
2019-04-26T20:10:04.844Z,12.7
2019-04-26T20:15:02.363Z,12.6
2019-04-26T20:20:02.022Z,12.6
2019-04-26T20:25:02.417Z,12.5
2019-04-26T20:30:02.326Z,12.5
2019-04-26T20:35:02.114Z,12.5
2019-04-26T20:40:16.065Z,12.5
2019-04-26T20:45:04.348Z,12.5
2019-04-26T20:50:03.014Z,12.4
2019-04-26T20:55:01.568Z,12.5
2019-04-26T21:00:04.824Z,12.4
2019-04-26T21:05:06.082Z,12.4
2019-04-26T21:10:02.921Z,12.4
2019-04-26T21:15:05.619Z,12.4
2019-04-26T21:20:04.849Z,12.5
2019-04-26T21:25:02.500Z,12.4
2019-04-26T21:30:03.306Z,12.4
2019-04-26T21:35:06.711Z,12.4
2019-04-26T21:40:03.895Z,12.3
2019-04-26T21:45:03.491Z,12.3
2019-04-26T21:50:04.113Z,12.3
2019-04-26T21:55:02.783Z,12.3
2019-04-26T22:00:04.125Z,12.3
2019-04-26T22:05:03.483Z,12.2
2019-04-26T22:10:05.104Z,12.2
2019-04-26T22:15:03.359Z,12
2019-04-26T22:20:04.917Z,12
2019-04-26T22:25:03.770Z,12
2019-04-26T22:30:03.225Z,11.9
2019-04-26T22:35:03.182Z,11.8
2019-04-26T22:40:03.618Z,11.8
2019-04-26T22:45:03.130Z,11.8
2019-04-26T22:50:01.730Z,11.8
2019-04-26T22:55:03.860Z,11.7
2019-04-26T23:00:02.063Z,11.6
2019-04-26T23:05:02.047Z,11.5
2019-04-26T23:10:03.999Z,11.5
2019-04-26T23:15:03.190Z,11.5
2019-04-26T23:20:02.990Z,11.4
2019-04-26T23:25:03.150Z,11.4
2019-04-26T23:30:01.810Z,11.4
2019-04-26T23:35:02.806Z,11.4
2019-04-26T23:40:03.933Z,11.4
2019-04-26T23:45:03.079Z,11.4
2019-04-26T23:50:01.639Z,11.5
2019-04-26T23:55:05.473Z,11.5
